sensor_id;sensor_type;location;lat;lon;timestamp;pressure;altitude;pressure_sealevel;temperature;humidity
70437;BME280;57877;39.750;-104.894;2023-12-20T00:01:20;83372.43;;;14.86;12.97
70437;BME280;57877;39.750;-104.894;2023-12-20T00:03:45;83377.53;;;14.81;13.06
70437;BME280;57877;39.750;-104.894;2023-12-20T00:06:10;83379.19;;;14.35;13.29
70437;BME280;57877;39.750;-104.894;2023-12-20T00:08:35;83379.83;;;14.51;13.35
70437;BME280;57877;39.750;-104.894;2023-12-20T00:11:01;83382.69;;;14.65;13.29
70437;BME280;57877;39.750;-104.894;2023-12-20T00:13:27;83388.49;;;14.51;13.45
70437;BME280;57877;39.750;-104.894;2023-12-20T00:15:52;83391.14;;;14.42;13.49
70437;BME280;57877;39.750;-104.894;2023-12-20T00:18:17;83393.18;;;14.17;13.43
70437;BME280;57877;39.750;-104.894;2023-12-20T00:20:42;83400.14;;;14.33;13.61
70437;BME280;57877;39.750;-104.894;2023-12-20T00:23:08;83401.89;;;14.24;13.63
70437;BME280;57877;39.750;-104.894;2023-12-20T00:25:34;83403.60;;;14.22;13.69
70437;BME280;57877;39.750;-104.894;2023-12-20T00:27:59;83404.70;;;13.98;13.90
70437;BME280;57877;39.750;-104.894;2023-12-20T00:30:24;83406.05;;;14.15;13.91
70437;BME280;57877;39.750;-104.894;2023-12-20T00:32:50;83406.13;;;14.11;13.93
70437;BME280;57877;39.750;-104.894;2023-12-20T00:35:17;83406.42;;;14.06;14.09
70437;BME280;57877;39.750;-104.894;2023-12-20T00:37:42;83409.96;;;14.21;14.30
70437;BME280;57877;39.750;-104.894;2023-12-20T00:40:09;83413.90;;;13.87;14.31
70437;BME280;57877;39.750;-104.894;2023-12-20T00:42:34;83416.62;;;13.80;14.41
70437;BME280;57877;39.750;-104.894;2023-12-20T00:45:00;83418.09;;;13.82;14.38
70437;BME280;57877;39.750;-104.894;2023-12-20T00:47:27;83420.77;;;14.11;14.29
70437;BME280;57877;39.750;-104.894;2023-12-20T00:49:52;83424.67;;;13.96;14.17
70437;BME280;57877;39.750;-104.894;2023-12-20T00:52:17;83428.81;;;13.96;14.02
70437;BME280;57877;39.750;-104.894;2023-12-20T00:54:43;83429.95;;;14.04;14.08
70437;BME280;57877;39.750;-104.894;2023-12-20T00:57:10;83429.99;;;14.32;14.94
70437;BME280;57877;39.750;-104.894;2023-12-20T00:59:36;83433.36;;;14.11;14.03
70437;BME280;57877;39.750;-104.894;2023-12-20T01:02:02;83434.17;;;14.12;14.10
70437;BME280;57877;39.750;-104.894;2023-12-20T01:04:28;83435.39;;;13.89;14.13
70437;BME280;57877;39.750;-104.894;2023-12-20T01:06:54;83436.85;;;14.16;13.66
70437;BME280;57877;39.750;-104.894;2023-12-20T01:09:20;83438.07;;;14.08;13.04
70437;BME280;57877;39.750;-104.894;2023-12-20T01:11:45;83438.69;;;13.90;13.70
70437;BME280;57877;39.750;-104.894;2023-12-20T01:14:10;83440.43;;;14.16;13.01
70437;BME280;57877;39.750;-104.894;2023-12-20T01:16:35;83445.14;;;14.31;13.05
70437;BME280;57877;39.750;-104.894;2023-12-20T01:19:00;83444.85;;;13.87;13.21
70437;BME280;57877;39.750;-104.894;2023-12-20T01:21:25;83449.70;;;13.56;13.41
70437;BME280;57877;39.750;-104.894;2023-12-20T01:23:50;83447.24;;;13.70;13.43
70437;BME280;57877;39.750;-104.894;2023-12-20T01:26:16;83448.66;;;14.01;13.49
70437;BME280;57877;39.750;-104.894;2023-12-20T01:28:42;83449.96;;;13.74;13.35
70437;BME280;57877;39.750;-104.894;2023-12-20T01:31:09;83451.11;;;13.63;13.46
70437;BME280;57877;39.750;-104.894;2023-12-20T01:33:34;83453.63;;;13.94;13.49
70437;BME280;57877;39.750;-104.894;2023-12-20T01:36:00;83456.68;;;14.07;13.38
70437;BME280;57877;39.750;-104.894;2023-12-20T01:38:26;83454.89;;;13.96;13.52
70437;BME280;57877;39.750;-104.894;2023-12-20T01:40:52;83458.61;;;13.46;13.82
70437;BME280;57877;39.750;-104.894;2023-12-20T01:43:18;83458.15;;;13.36;13.88
70437;BME280;57877;39.750;-104.894;2023-12-20T01:45:44;83456.82;;;13.71;13.69
70437;BME280;57877;39.750;-104.894;2023-12-20T01:48:10;83456.66;;;13.49;13.62
70437;BME280;57877;39.750;-104.894;2023-12-20T01:50:37;83461.24;;;13.36;13.72
70437;BME280;57877;39.750;-104.894;2023-12-20T01:53:03;83463.72;;;13.64;13.69
70437;BME280;57877;39.750;-104.894;2023-12-20T01:55:30;83460.36;;;13.41;13.64
70437;BME280;57877;39.750;-104.894;2023-12-20T01:57:54;83459.76;;;13.20;13.53
70437;BME280;57877;39.750;-104.894;2023-12-20T02:00:22;83460.56;;;13.39;13.64
70437;BME280;57877;39.750;-104.894;2023-12-20T02:02:46;83458.07;;;13.08;13.83
70437;BME280;57877;39.750;-104.894;2023-12-20T02:05:13;83460.84;;;12.89;13.78
70437;BME280;57877;39.750;-104.894;2023-12-20T02:07:38;83460.85;;;13.15;13.79
70437;BME280;57877;39.750;-104.894;2023-12-20T02:10:05;83462.52;;;12.62;14.06
70437;BME280;57877;39.750;-104.894;2023-12-20T02:12:30;83461.54;;;12.76;14.08
70437;BME280;57877;39.750;-104.894;2023-12-20T02:14:56;83460.02;;;12.95;14.18
70437;BME280;57877;39.750;-104.894;2023-12-20T02:17:22;83460.85;;;12.60;14.39
70437;BME280;57877;39.750;-104.894;2023-12-20T02:19:49;83460.08;;;12.88;14.29
70437;BME280;57877;39.750;-104.894;2023-12-20T02:22:14;83460.26;;;12.95;14.29
70437;BME280;57877;39.750;-104.894;2023-12-20T02:24:40;83460.38;;;13.10;14.37
70437;BME280;57877;39.750;-104.894;2023-12-20T02:27:06;83459.63;;;12.74;14.67
70437;BME280;57877;39.750;-104.894;2023-12-20T02:29:31;83460.37;;;12.91;14.82
70437;BME280;57877;39.750;-104.894;2023-12-20T02:31:57;83460.77;;;12.60;15.23
70437;BME280;57877;39.750;-104.894;2023-12-20T02:34:23;83459.73;;;13.02;15.27
70437;BME280;57877;39.750;-104.894;2023-12-20T02:36:49;83460.74;;;12.64;15.03
70437;BME280;57877;39.750;-104.894;2023-12-20T02:39:15;83463.46;;;12.52;15.31
70437;BME280;57877;39.750;-104.894;2023-12-20T02:41:41;83467.16;;;12.44;15.75
70437;BME280;57877;39.750;-104.894;2023-12-20T02:44:07;83468.40;;;12.27;15.67
70437;BME280;57877;39.750;-104.894;2023-12-20T02:46:32;83470.95;;;12.26;15.55
70437;BME280;57877;39.750;-104.894;2023-12-20T02:48:58;83472.34;;;12.40;15.74
70437;BME280;57877;39.750;-104.894;2023-12-20T02:51:24;83471.74;;;12.33;15.68
70437;BME280;57877;39.750;-104.894;2023-12-20T02:53:49;83470.32;;;12.01;16.07
70437;BME280;57877;39.750;-104.894;2023-12-20T02:56:16;83470.08;;;12.36;15.79
70437;BME280;57877;39.750;-104.894;2023-12-20T02:58:40;83467.81;;;11.92;15.62
70437;BME280;57877;39.750;-104.894;2023-12-20T03:01:05;83465.84;;;11.86;16.07
70437;BME280;57877;39.750;-104.894;2023-12-20T03:03:30;83465.90;;;12.25;16.19
70437;BME280;57877;39.750;-104.894;2023-12-20T03:05:56;83465.93;;;11.61;16.43
70437;BME280;57877;39.750;-104.894;2023-12-20T03:08:20;83466.55;;;11.84;16.35
70437;BME280;57877;39.750;-104.894;2023-12-20T03:10:46;83467.29;;;11.79;16.49
70437;BME280;57877;39.750;-104.894;2023-12-20T03:13:11;83465.15;;;11.64;16.74
70437;BME280;57877;39.750;-104.894;2023-12-20T03:15:36;83467.23;;;11.53;16.74
70437;BME280;57877;39.750;-104.894;2023-12-20T03:18:02;83473.63;;;11.39;17.03
70437;BME280;57877;39.750;-104.894;2023-12-20T03:20:27;83475.12;;;11.12;17.67
70437;BME280;57877;39.750;-104.894;2023-12-20T03:22:52;83473.63;;;10.93;17.87
70437;BME280;57877;39.750;-104.894;2023-12-20T03:25:18;83475.62;;;10.59;18.11
70437;BME280;57877;39.750;-104.894;2023-12-20T03:27:43;83475.39;;;10.57;18.12
70437;BME280;57877;39.750;-104.894;2023-12-20T03:30:08;83474.01;;;10.30;18.25
70437;BME280;57877;39.750;-104.894;2023-12-20T03:32:33;83474.60;;;10.55;18.14
70437;BME280;57877;39.750;-104.894;2023-12-20T03:34:58;83473.82;;;10.64;18.04
70437;BME280;57877;39.750;-104.894;2023-12-20T03:37:23;83472.91;;;10.51;18.45
70437;BME280;57877;39.750;-104.894;2023-12-20T03:39:48;83472.55;;;10.46;18.26
70437;BME280;57877;39.750;-104.894;2023-12-20T03:42:13;83471.60;;;10.25;18.13
70437;BME280;57877;39.750;-104.894;2023-12-20T03:44:39;83478.72;;;10.35;18.29
70437;BME280;57877;39.750;-104.894;2023-12-20T03:47:03;83482.20;;;10.35;18.41
70437;BME280;57877;39.750;-104.894;2023-12-20T03:49:28;83485.32;;;10.09;18.64
70437;BME280;57877;39.750;-104.894;2023-12-20T03:51:53;83486.95;;;10.02;18.76
70437;BME280;57877;39.750;-104.894;2023-12-20T03:54:18;83489.80;;;9.73;18.99
70437;BME280;57877;39.750;-104.894;2023-12-20T03:56:43;83487.92;;;10.41;18.79
70437;BME280;57877;39.750;-104.894;2023-12-20T03:59:08;83488.02;;;9.77;19.10
70437;BME280;57877;39.750;-104.894;2023-12-20T04:01:33;83487.75;;;9.92;19.15
70437;BME280;57877;39.750;-104.894;2023-12-20T04:03:58;83487.57;;;10.12;19.07
70437;BME280;57877;39.750;-104.894;2023-12-20T04:06:23;83488.00;;;10.15;19.19
70437;BME280;57877;39.750;-104.894;2023-12-20T04:08:48;83486.21;;;10.45;19.60
70437;BME280;57877;39.750;-104.894;2023-12-20T04:11:13;83482.12;;;10.30;19.67
70437;BME280;57877;39.750;-104.894;2023-12-20T04:13:38;83477.33;;;9.57;20.45
70437;BME280;57877;39.750;-104.894;2023-12-20T04:16:04;83478.32;;;9.68;20.63
70437;BME280;57877;39.750;-104.894;2023-12-20T04:18:28;83476.93;;;9.74;20.68
70437;BME280;57877;39.750;-104.894;2023-12-20T04:20:53;83479.91;;;10.05;20.64
70437;BME280;57877;39.750;-104.894;2023-12-20T04:23:18;83483.82;;;9.90;20.56
70437;BME280;57877;39.750;-104.894;2023-12-20T04:25:43;83492.08;;;9.80;20.60
70437;BME280;57877;39.750;-104.894;2023-12-20T04:28:10;83491.25;;;9.83;20.76
70437;BME280;57877;39.750;-104.894;2023-12-20T04:30:34;83490.72;;;10.13;20.71
70437;BME280;57877;39.750;-104.894;2023-12-20T04:33:00;83489.29;;;9.77;20.49
70437;BME280;57877;39.750;-104.894;2023-12-20T04:35:24;83486.58;;;9.90;20.35
70437;BME280;57877;39.750;-104.894;2023-12-20T04:37:51;83484.27;;;8.99;20.88
70437;BME280;57877;39.750;-104.894;2023-12-20T04:40:16;83486.72;;;8.94;20.79
70437;BME280;57877;39.750;-104.894;2023-12-20T04:42:41;83490.92;;;9.19;20.71
70437;BME280;57877;39.750;-104.894;2023-12-20T04:45:06;83493.79;;;9.39;20.76
70437;BME280;57877;39.750;-104.894;2023-12-20T04:47:31;83495.40;;;8.88;20.89
70437;BME280;57877;39.750;-104.894;2023-12-20T04:49:57;83495.61;;;9.07;20.72
70437;BME280;57877;39.750;-104.894;2023-12-20T04:52:23;83493.67;;;9.13;20.85
70437;BME280;57877;39.750;-104.894;2023-12-20T04:54:49;83488.99;;;9.24;20.77
70437;BME280;57877;39.750;-104.894;2023-12-20T04:57:15;83485.64;;;9.17;20.79
70437;BME280;57877;39.750;-104.894;2023-12-20T04:59:41;83482.68;;;8.69;21.14
70437;BME280;57877;39.750;-104.894;2023-12-20T05:02:07;83485.07;;;8.71;21.43
70437;BME280;57877;39.750;-104.894;2023-12-20T05:04:33;83486.10;;;8.75;21.35
70437;BME280;57877;39.750;-104.894;2023-12-20T05:06:59;83487.26;;;7.78;22.10
70437;BME280;57877;39.750;-104.894;2023-12-20T05:09:25;83488.45;;;7.85;21.93
70437;BME280;57877;39.750;-104.894;2023-12-20T05:11:51;83489.19;;;7.98;22.14
70437;BME280;57877;39.750;-104.894;2023-12-20T05:14:16;83494.65;;;8.73;21.59
70437;BME280;57877;39.750;-104.894;2023-12-20T05:16:42;83492.78;;;8.35;21.88
70437;BME280;57877;39.750;-104.894;2023-12-20T05:19:08;83494.42;;;8.19;21.81
70437;BME280;57877;39.750;-104.894;2023-12-20T05:21:34;83496.15;;;8.49;21.81
70437;BME280;57877;39.750;-104.894;2023-12-20T05:24:00;83497.26;;;8.75;21.59
70437;BME280;57877;39.750;-104.894;2023-12-20T05:26:26;83495.68;;;8.94;21.49
70437;BME280;57877;39.750;-104.894;2023-12-20T05:28:52;83496.56;;;9.03;21.24
70437;BME280;57877;39.750;-104.894;2023-12-20T05:31:18;83499.66;;;9.16;21.13
70437;BME280;57877;39.750;-104.894;2023-12-20T05:33:44;83497.86;;;8.94;21.28
70437;BME280;57877;39.750;-104.894;2023-12-20T05:36:10;83493.33;;;8.63;21.57
70437;BME280;57877;39.750;-104.894;2023-12-20T05:38:36;83496.66;;;8.86;21.21
70437;BME280;57877;39.750;-104.894;2023-12-20T05:41:02;83499.21;;;8.90;21.18
70437;BME280;57877;39.750;-104.894;2023-12-20T05:43:28;83499.74;;;8.98;21.23
70437;BME280;57877;39.750;-104.894;2023-12-20T05:45:53;83498.90;;;9.35;21.09
70437;BME280;57877;39.750;-104.894;2023-12-20T05:48:19;83494.93;;;8.89;21.28
70437;BME280;57877;39.750;-104.894;2023-12-20T05:50:45;83497.22;;;9.13;21.12
70437;BME280;57877;39.750;-104.894;2023-12-20T05:53:11;83496.13;;;9.01;21.38
70437;BME280;57877;39.750;-104.894;2023-12-20T05:55:36;83496.69;;;9.37;21.38
70437;BME280;57877;39.750;-104.894;2023-12-20T05:58:02;83491.74;;;8.71;21.72
70437;BME280;57877;39.750;-104.894;2023-12-20T06:00:27;83492.51;;;8.43;22.03
70437;BME280;57877;39.750;-104.894;2023-12-20T06:02:52;83488.66;;;7.88;22.51
70437;BME280;57877;39.750;-104.894;2023-12-20T06:05:18;83484.88;;;8.31;22.46
70437;BME280;57877;39.750;-104.894;2023-12-20T06:07:45;83486.45;;;8.01;22.49
70437;BME280;57877;39.750;-104.894;2023-12-20T06:10:10;83486.71;;;8.14;22.63
70437;BME280;57877;39.750;-104.894;2023-12-20T06:12:36;83485.39;;;7.94;22.77
70437;BME280;57877;39.750;-104.894;2023-12-20T06:15:03;83484.61;;;7.79;22.96
70437;BME280;57877;39.750;-104.894;2023-12-20T06:17:28;83484.38;;;8.39;22.44
70437;BME280;57877;39.750;-104.894;2023-12-20T06:19:54;83481.49;;;8.60;22.13
70437;BME280;57877;39.750;-104.894;2023-12-20T06:22:21;83483.67;;;8.70;21.98
70437;BME280;57877;39.750;-104.894;2023-12-20T06:24:45;83483.14;;;7.97;22.40
70437;BME280;57877;39.750;-104.894;2023-12-20T06:27:10;83481.76;;;8.12;22.52
70437;BME280;57877;39.750;-104.894;2023-12-20T06:29:36;83478.60;;;8.25;22.54
70437;BME280;57877;39.750;-104.894;2023-12-20T06:32:03;83476.72;;;8.44;22.47
70437;BME280;57877;39.750;-104.894;2023-12-20T06:34:29;83473.23;;;8.57;22.17
70437;BME280;57877;39.750;-104.894;2023-12-20T06:36:54;83471.17;;;8.90;22.06
70437;BME280;57877;39.750;-104.894;2023-12-20T06:39:20;83472.33;;;8.79;21.95
70437;BME280;57877;39.750;-104.894;2023-12-20T06:41:46;83472.67;;;8.80;21.96
70437;BME280;57877;39.750;-104.894;2023-12-20T06:44:12;83469.17;;;8.38;22.31
70437;BME280;57877;39.750;-104.894;2023-12-20T06:46:37;83470.27;;;8.53;22.37
70437;BME280;57877;39.750;-104.894;2023-12-20T06:49:03;83468.75;;;9.03;22.09
70437;BME280;57877;39.750;-104.894;2023-12-20T06:51:29;83468.58;;;9.09;22.02
70437;BME280;57877;39.750;-104.894;2023-12-20T06:53:54;83465.75;;;8.89;22.05
70437;BME280;57877;39.750;-104.894;2023-12-20T06:56:20;83465.13;;;8.67;22.14
70437;BME280;57877;39.750;-104.894;2023-12-20T06:58:46;83463.31;;;8.43;22.36
70437;BME280;57877;39.750;-104.894;2023-12-20T07:01:12;83463.67;;;8.18;22.35
70437;BME280;57877;39.750;-104.894;2023-12-20T07:03:38;83463.91;;;8.86;21.90
70437;BME280;57877;39.750;-104.894;2023-12-20T07:06:04;83459.28;;;8.31;22.02
70437;BME280;57877;39.750;-104.894;2023-12-20T07:08:30;83460.74;;;8.06;22.11
70437;BME280;57877;39.750;-104.894;2023-12-20T07:10:56;83457.33;;;8.34;22.03
70437;BME280;57877;39.750;-104.894;2023-12-20T07:13:22;83452.87;;;8.24;21.94
70437;BME280;57877;39.750;-104.894;2023-12-20T07:15:48;83457.01;;;8.62;21.75
70437;BME280;57877;39.750;-104.894;2023-12-20T07:18:13;83456.28;;;8.91;21.56
70437;BME280;57877;39.750;-104.894;2023-12-20T07:20:38;83454.04;;;8.56;21.57
70437;BME280;57877;39.750;-104.894;2023-12-20T07:23:08;83455.13;;;8.70;21.66
70437;BME280;57877;39.750;-104.894;2023-12-20T07:25:28;83456.91;;;8.41;21.92
70437;BME280;57877;39.750;-104.894;2023-12-20T07:27:54;83457.09;;;7.89;22.04
70437;BME280;57877;39.750;-104.894;2023-12-20T07:30:19;83458.98;;;8.18;21.94
70437;BME280;57877;39.750;-104.894;2023-12-20T07:32:44;83459.41;;;8.81;21.40
70437;BME280;57877;39.750;-104.894;2023-12-20T07:35:10;83462.75;;;8.64;21.21
70437;BME280;57877;39.750;-104.894;2023-12-20T07:37:35;83464.35;;;8.93;21.11
70437;BME280;57877;39.750;-104.894;2023-12-20T07:40:00;83461.91;;;8.64;20.97
70437;BME280;57877;39.750;-104.894;2023-12-20T07:42:26;83459.75;;;8.53;21.36
70437;BME280;57877;39.750;-104.894;2023-12-20T07:44:51;83461.34;;;8.83;21.03
70437;BME280;57877;39.750;-104.894;2023-12-20T07:47:16;83460.76;;;8.43;21.69
70437;BME280;57877;39.750;-104.894;2023-12-20T07:49:41;83458.70;;;8.65;21.78
70437;BME280;57877;39.750;-104.894;2023-12-20T07:52:06;83455.86;;;8.21;22.16
70437;BME280;57877;39.750;-104.894;2023-12-20T07:54:32;83454.07;;;8.46;21.06
70437;BME280;57877;39.750;-104.894;2023-12-20T07:56:58;83453.94;;;8.15;21.21
70437;BME280;57877;39.750;-104.894;2023-12-20T07:59:23;83454.85;;;8.47;21.04
70437;BME280;57877;39.750;-104.894;2023-12-20T08:01:48;83453.97;;;8.45;20.98
70437;BME280;57877;39.750;-104.894;2023-12-20T08:04:13;83458.41;;;8.09;21.07
70437;BME280;57877;39.750;-104.894;2023-12-20T08:06:38;83458.22;;;8.40;21.24
70437;BME280;57877;39.750;-104.894;2023-12-20T08:09:03;83455.15;;;8.39;21.29
70437;BME280;57877;39.750;-104.894;2023-12-20T08:11:28;83451.72;;;8.49;21.35
70437;BME280;57877;39.750;-104.894;2023-12-20T08:13:53;83451.72;;;8.36;21.40
70437;BME280;57877;39.750;-104.894;2023-12-20T08:16:18;83450.23;;;8.33;21.66
70437;BME280;57877;39.750;-104.894;2023-12-20T08:18:43;83452.07;;;8.08;21.45
70437;BME280;57877;39.750;-104.894;2023-12-20T08:21:08;83453.07;;;8.35;21.87
70437;BME280;57877;39.750;-104.894;2023-12-20T08:23:33;83455.91;;;8.33;21.91
70437;BME280;57877;39.750;-104.894;2023-12-20T08:25:58;83457.06;;;8.16;21.68
70437;BME280;57877;39.750;-104.894;2023-12-20T08:28:24;83455.65;;;8.28;21.32
70437;BME280;57877;39.750;-104.894;2023-12-20T08:30:50;83454.98;;;8.20;21.24
70437;BME280;57877;39.750;-104.894;2023-12-20T08:33:16;83452.11;;;7.98;21.63
70437;BME280;57877;39.750;-104.894;2023-12-20T08:35:42;83452.29;;;8.09;21.59
70437;BME280;57877;39.750;-104.894;2023-12-20T08:38:07;83451.32;;;8.20;21.65
70437;BME280;57877;39.750;-104.894;2023-12-20T08:40:33;83450.20;;;7.85;22.06
70437;BME280;57877;39.750;-104.894;2023-12-20T08:42:57;83450.29;;;8.13;21.87
70437;BME280;57877;39.750;-104.894;2023-12-20T08:45:22;83450.92;;;8.27;21.82
70437;BME280;57877;39.750;-104.894;2023-12-20T08:47:47;83449.28;;;8.59;21.55
70437;BME280;57877;39.750;-104.894;2023-12-20T08:50:13;83454.47;;;8.95;21.34
70437;BME280;57877;39.750;-104.894;2023-12-20T08:52:37;83454.98;;;8.55;21.66
70437;BME280;57877;39.750;-104.894;2023-12-20T08:55:03;83461.86;;;8.80;21.32
70437;BME280;57877;39.750;-104.894;2023-12-20T08:57:28;83467.04;;;8.89;21.22
70437;BME280;57877;39.750;-104.894;2023-12-20T08:59:54;83472.11;;;8.82;21.19
70437;BME280;57877;39.750;-104.894;2023-12-20T09:02:20;83478.27;;;9.34;21.24
70437;BME280;57877;39.750;-104.894;2023-12-20T09:04:46;83479.21;;;8.62;21.54
70437;BME280;57877;39.750;-104.894;2023-12-20T09:09:38;83479.61;;;8.61;21.75
70437;BME280;57877;39.750;-104.894;2023-12-20T09:12:05;83476.41;;;8.70;21.81
70437;BME280;57877;39.750;-104.894;2023-12-20T09:14:31;83476.32;;;8.59;22.06
70437;BME280;57877;39.750;-104.894;2023-12-20T09:16:57;83479.28;;;8.35;22.26
70437;BME280;57877;39.750;-104.894;2023-12-20T09:19:22;83485.76;;;8.16;22.56
70437;BME280;57877;39.750;-104.894;2023-12-20T09:21:47;83486.13;;;8.40;22.56
70437;BME280;57877;39.750;-104.894;2023-12-20T09:24:13;83487.18;;;7.90;22.96
70437;BME280;57877;39.750;-104.894;2023-12-20T09:26:39;83488.02;;;8.31;22.96
70437;BME280;57877;39.750;-104.894;2023-12-20T09:29:04;83485.04;;;8.30;23.02
70437;BME280;57877;39.750;-104.894;2023-12-20T09:31:29;83484.80;;;8.49;22.94
70437;BME280;57877;39.750;-104.894;2023-12-20T09:33:54;83484.46;;;8.28;23.00
70437;BME280;57877;39.750;-104.894;2023-12-20T09:36:20;83482.41;;;8.32;23.18
70437;BME280;57877;39.750;-104.894;2023-12-20T09:38:45;83479.89;;;8.16;23.36
70437;BME280;57877;39.750;-104.894;2023-12-20T09:41:10;83478.59;;;8.07;23.32
70437;BME280;57877;39.750;-104.894;2023-12-20T09:43:37;83481.29;;;8.15;23.49
70437;BME280;57877;39.750;-104.894;2023-12-20T09:46:01;83482.21;;;8.21;23.61
70437;BME280;57877;39.750;-104.894;2023-12-20T09:48:27;83479.59;;;8.03;23.53
70437;BME280;57877;39.750;-104.894;2023-12-20T09:50:50;83477.80;;;8.34;23.33
70437;BME280;57877;39.750;-104.894;2023-12-20T09:53:16;83479.46;;;8.35;23.48
70437;BME280;57877;39.750;-104.894;2023-12-20T09:55:41;83479.72;;;8.21;23.43
70437;BME280;57877;39.750;-104.894;2023-12-20T09:58:05;83483.94;;;8.24;23.51
70437;BME280;57877;39.750;-104.894;2023-12-20T10:00:30;83488.35;;;8.22;23.44
70437;BME280;57877;39.750;-104.894;2023-12-20T10:02:58;83494.18;;;7.95;23.59
70437;BME280;57877;39.750;-104.894;2023-12-20T10:05:26;83496.55;;;8.09;23.88
70437;BME280;57877;39.750;-104.894;2023-12-20T10:07:46;83498.34;;;8.26;23.78
70437;BME280;57877;39.750;-104.894;2023-12-20T10:10:12;83500.07;;;8.08;23.96
70437;BME280;57877;39.750;-104.894;2023-12-20T10:12:36;83502.43;;;8.00;24.37
70437;BME280;57877;39.750;-104.894;2023-12-20T10:15:01;83504.80;;;8.15;24.32
70437;BME280;57877;39.750;-104.894;2023-12-20T10:17:27;83509.20;;;8.25;24.48
70437;BME280;57877;39.750;-104.894;2023-12-20T10:19:51;83502.57;;;8.08;24.56
70437;BME280;57877;39.750;-104.894;2023-12-20T10:22:16;83509.50;;;8.11;24.59
70437;BME280;57877;39.750;-104.894;2023-12-20T10:24:42;83512.76;;;7.94;24.80
70437;BME280;57877;39.750;-104.894;2023-12-20T10:27:07;83514.70;;;8.08;24.88
70437;BME280;57877;39.750;-104.894;2023-12-20T10:29:33;83515.21;;;7.17;25.69
70437;BME280;57877;39.750;-104.894;2023-12-20T10:31:56;83515.52;;;7.52;25.43
70437;BME280;57877;39.750;-104.894;2023-12-20T10:34:21;83514.09;;;7.93;25.40
70437;BME280;57877;39.750;-104.894;2023-12-20T10:36:47;83518.95;;;7.87;25.25
70437;BME280;57877;39.750;-104.894;2023-12-20T10:39:14;83520.56;;;7.27;25.53
70437;BME280;57877;39.750;-104.894;2023-12-20T10:41:38;83521.73;;;7.69;25.24
70437;BME280;57877;39.750;-104.894;2023-12-20T10:44:03;83519.96;;;7.72;25.30
70437;BME280;57877;39.750;-104.894;2023-12-20T10:46:29;83524.32;;;7.24;25.20
70437;BME280;57877;39.750;-104.894;2023-12-20T10:48:55;83528.11;;;7.52;25.29
70437;BME280;57877;39.750;-104.894;2023-12-20T10:51:21;83533.34;;;7.86;25.41
70437;BME280;57877;39.750;-104.894;2023-12-20T10:53:45;83533.60;;;7.75;25.35
70437;BME280;57877;39.750;-104.894;2023-12-20T10:56:11;83531.86;;;7.82;25.31
70437;BME280;57877;39.750;-104.894;2023-12-20T10:58:36;83530.64;;;7.56;25.42
70437;BME280;57877;39.750;-104.894;2023-12-20T11:01:01;83527.81;;;7.71;25.26
70437;BME280;57877;39.750;-104.894;2023-12-20T11:03:27;83525.43;;;7.79;25.31
70437;BME280;57877;39.750;-104.894;2023-12-20T11:05:58;83531.22;;;7.99;25.44
70437;BME280;57877;39.750;-104.894;2023-12-20T11:08:25;83532.49;;;8.00;25.38
70437;BME280;57877;39.750;-104.894;2023-12-20T11:10:49;83532.75;;;8.01;25.42
70437;BME280;57877;39.750;-104.894;2023-12-20T11:13:12;83531.59;;;7.47;25.93
70437;BME280;57877;39.750;-104.894;2023-12-20T11:15:33;83526.40;;;7.68;25.82
70437;BME280;57877;39.750;-104.894;2023-12-20T11:17:59;83528.66;;;7.56;25.91
70437;BME280;57877;39.750;-104.894;2023-12-20T11:20:24;83530.68;;;7.62;25.78
70437;BME280;57877;39.750;-104.894;2023-12-20T11:22:54;83527.89;;;8.06;25.98
70437;BME280;57877;39.750;-104.894;2023-12-20T11:25:14;83528.95;;;7.73;26.18
70437;BME280;57877;39.750;-104.894;2023-12-20T11:27:42;83531.40;;;7.49;26.40
70437;BME280;57877;39.750;-104.894;2023-12-20T11:30:06;83531.44;;;7.70;25.96
70437;BME280;57877;39.750;-104.894;2023-12-20T11:32:30;83530.84;;;7.46;25.89
70437;BME280;57877;39.750;-104.894;2023-12-20T11:34:56;83539.56;;;7.55;25.90
70437;BME280;57877;39.750;-104.894;2023-12-20T11:37:20;83540.21;;;7.55;25.67
70437;BME280;57877;39.750;-104.894;2023-12-20T11:39:45;83541.92;;;7.75;25.42
70437;BME280;57877;39.750;-104.894;2023-12-20T11:42:11;83544.65;;;7.75;25.27
70437;BME280;57877;39.750;-104.894;2023-12-20T11:44:37;83550.48;;;7.75;25.55
70437;BME280;57877;39.750;-104.894;2023-12-20T11:47:00;83551.72;;;7.83;25.51
70437;BME280;57877;39.750;-104.894;2023-12-20T11:49:25;83556.07;;;7.80;25.29
70437;BME280;57877;39.750;-104.894;2023-12-20T11:51:50;83558.32;;;7.77;25.34
70437;BME280;57877;39.750;-104.894;2023-12-20T11:54:16;83558.13;;;7.86;25.20
70437;BME280;57877;39.750;-104.894;2023-12-20T11:56:40;83558.92;;;7.96;25.05
70437;BME280;57877;39.750;-104.894;2023-12-20T11:59:05;83564.81;;;7.97;25.10
70437;BME280;57877;39.750;-104.894;2023-12-20T12:01:31;83565.24;;;7.90;24.77
70437;BME280;57877;39.750;-104.894;2023-12-20T12:04:02;83569.37;;;8.03;24.86
70437;BME280;57877;39.750;-104.894;2023-12-20T12:06:21;83572.42;;;8.13;24.80
70437;BME280;57877;39.750;-104.894;2023-12-20T12:08:46;83574.31;;;7.95;24.62
70437;BME280;57877;39.750;-104.894;2023-12-20T12:11:13;83574.18;;;7.97;24.40
70437;BME280;57877;39.750;-104.894;2023-12-20T12:13:37;83577.57;;;8.05;24.28
70437;BME280;57877;39.750;-104.894;2023-12-20T12:16:03;83577.11;;;7.60;24.94
70437;BME280;57877;39.750;-104.894;2023-12-20T12:18:32;83583.35;;;7.98;24.70
70437;BME280;57877;39.750;-104.894;2023-12-20T12:21:00;83586.93;;;8.16;24.55
70437;BME280;57877;39.750;-104.894;2023-12-20T12:23:23;83589.26;;;7.92;24.76
70437;BME280;57877;39.750;-104.894;2023-12-20T12:25:45;83590.13;;;7.81;24.93
70437;BME280;57877;39.750;-104.894;2023-12-20T12:28:08;83594.48;;;8.07;24.84